Time;durP1;ratioP1;P1;durP2;ratioP2;P2;SDS_P1;SDS_P2;PMS_P1;PMS_P2;Temp;Humidity;BMP_temperature;BMP_pressure;BME280_temperature;BME280_humidity;BME280_pressure;Samples;Min_cycle;Max_cycle;Signal;HPM_P1;HPM_P2
2022/06/22 00:00:08;;;;;;;3.77;2.20;;;;;;;;;;5073839;28;20234;-52
2022/06/22 00:02:36;;;;;;;3.43;2.40;;;;;;;;;;5074455;28;20274;-52
2022/06/22 00:05:03;;;;;;;3.27;2.20;;;;;;;;;;5073959;28;20295;-53
2022/06/22 00:07:31;;;;;;;3.87;2.50;;;;;;;;;;5074262;28;20237;-53
2022/06/22 00:09:59;;;;;;;3.40;2.50;;;;;;;;;;5073858;28;20608;-52
2022/06/22 00:12:26;;;;;;;3.37;2.17;;;;;;;;;;5073792;28;20195;-53
2022/06/22 00:14:55;;;;;;;3.03;2.30;;;;;;;;;;5073758;28;20245;-53
2022/06/22 00:17:23;;;;;;;6.33;2.50;;;;;;;;;;5074265;28;20253;-53
2022/06/22 00:19:50;;;;;;;4.67;2.50;;;;;;;;;;5073576;28;20314;-53
2022/06/22 00:22:20;;;;;;;3.50;2.40;;;;;;;;;;5073467;28;20199;-52
2022/06/22 00:24:46;;;;;;;4.37;2.47;;;;;;;;;;5073268;28;20203;-52
2022/06/22 00:27:19;;;;;;;3.10;2.10;;;;;;;;;;5072956;28;20735;-52
2022/06/22 00:29:46;;;;;;;3.53;2.30;;;;;;;;;;5074260;28;20198;-53
2022/06/22 00:32:15;;;;;;;3.83;2.10;;;;;;;;;;5073904;28;20203;-53
2022/06/22 00:34:41;;;;;;;4.27;2.60;;;;;;;;;;5073235;28;20295;-53
2022/06/22 00:37:14;;;;;;;3.00;2.43;;;;;;;;;;5073119;28;20219;-53
2022/06/22 00:39:42;;;;;;;5.27;2.27;;;;;;;;;;5073199;28;20265;-53
2022/06/22 00:42:24;;;;;;;3.70;2.20;;;;;;;;;;5072678;28;20203;-53
2022/06/22 00:44:52;;;;;;;5.30;2.30;;;;;;;;;;5073230;28;20275;-53
2022/06/22 00:47:22;;;;;;;3.23;1.83;;;;;;;;;;5073116;28;20657;-54
2022/06/22 00:49:48;;;;;;;4.77;2.30;;;;;;;;;;5072793;28;20206;-53
2022/06/22 00:52:20;;;;;;;3.03;2.00;;;;;;;;;;5073740;28;20235;-53
2022/06/22 00:54:46;;;;;;;3.93;2.40;;;;;;;;;;5073918;28;20203;-54
2022/06/22 00:57:14;;;;;;;5.37;2.40;;;;;;;;;;5073087;28;20196;-53
2022/06/22 00:59:44;;;;;;;2.17;1.97;;;;;;;;;;5072659;28;20234;-53
2022/06/22 01:02:15;;;;;;;3.87;2.20;;;;;;;;;;5072419;28;20241;-54
2022/06/22 01:04:46;;;;;;;4.50;2.93;;;;;;;;;;5073229;28;20196;-53
2022/06/22 01:07:16;;;;;;;3.33;2.30;;;;;;;;;;5073226;28;20208;-53
2022/06/22 01:09:45;;;;;;;5.30;2.10;;;;;;;;;;5073189;28;20203;-53
2022/06/22 01:12:22;;;;;;;3.70;2.40;;;;;;;;;;5072496;28;20203;-53
2022/06/22 01:14:52;;;;;;;3.63;2.30;;;;;;;;;;5072674;28;20278;-53
2022/06/22 01:17:21;;;;;;;3.03;2.03;;;;;;;;;;5072666;28;20226;-52
2022/06/22 01:19:54;;;;;;;5.03;2.70;;;;;;;;;;5072286;28;20635;-53
2022/06/22 01:22:25;;;;;;;3.50;2.53;;;;;;;;;;5072259;28;20531;-53
2022/06/22 01:24:57;;;;;;;4.37;2.60;;;;;;;;;;5072280;28;20241;-53
2022/06/22 01:27:30;;;;;;;3.17;2.50;;;;;;;;;;5072412;28;20294;-53
2022/06/22 01:29:56;;;;;;;4.97;2.67;;;;;;;;;;5072174;28;20688;-53
2022/06/22 01:32:23;;;;;;;3.37;2.50;;;;;;;;;;5072817;28;20191;-53
2022/06/22 01:34:51;;;;;;;3.30;2.40;;;;;;;;;;5072666;28;20195;-53
2022/06/22 01:37:19;;;;;;;4.33;2.50;;;;;;;;;;5072183;28;20199;-53
2022/06/22 01:39:45;;;;;;;7.07;3.00;;;;;;;;;;5071933;28;20288;-54
2022/06/22 01:42:17;;;;;;;4.57;2.97;;;;;;;;;;5071748;28;20203;-54
2022/06/22 01:44:46;;;;;;;6.67;2.80;;;;;;;;;;5070691;28;20193;-54
2022/06/22 01:47:22;;;;;;;3.93;2.77;;;;;;;;;;5072677;28;20210;-53
2022/06/22 01:49:50;;;;;;;2.77;2.47;;;;;;;;;;5072201;28;20194;-53
2022/06/22 01:52:21;;;;;;;2.50;2.30;;;;;;;;;;5071966;28;20215;-53
2022/06/22 01:54:50;;;;;;;4.13;2.40;;;;;;;;;;5071969;28;20627;-54
2022/06/22 01:57:19;;;;;;;2.73;2.30;;;;;;;;;;5071836;28;20199;-53
2022/06/22 01:59:49;;;;;;;4.13;2.67;;;;;;;;;;5071728;28;20223;-54
2022/06/22 02:02:20;;;;;;;2.50;2.30;;;;;;;;;;5071647;28;20624;-54
2022/06/22 02:04:48;;;;;;;4.63;2.93;;;;;;;;;;5071620;28;20200;-54
2022/06/22 02:10:10;;;;;;;5.43;3.00;;;;;;;;;;5071570;28;20198;-54
2022/06/22 02:12:37;;;;;;;4.67;2.70;;;;;;;;;;5071694;28;20195;-53
2022/06/22 02:15:08;;;;;;;3.03;2.63;;;;;;;;;;5071181;28;20670;-53
2022/06/22 02:17:37;;;;;;;3.60;2.53;;;;;;;;;;5071447;28;20200;-54
2022/06/22 02:20:26;;;;;;;3.40;3.00;;;;;;;;;;5071494;28;20228;-54
2022/06/22 02:22:55;;;;;;;4.00;2.70;;;;;;;;;;5071578;28;20199;-54
2022/06/22 02:25:22;;;;;;;3.00;2.60;;;;;;;;;;5069694;28;20573;-53
2022/06/22 02:27:48;;;;;;;3.43;2.67;;;;;;;;;;5071408;28;20198;-53
2022/06/22 02:30:15;;;;;;;3.10;2.57;;;;;;;;;;5071562;28;20203;-53
2022/06/22 02:32:43;;;;;;;2.90;2.60;;;;;;;;;;5071583;28;20198;-53
2022/06/22 02:35:11;;;;;;;4.93;2.63;;;;;;;;;;5071359;28;20198;-53
2022/06/22 02:37:40;;;;;;;3.10;2.80;;;;;;;;;;5071797;28;20567;-53
2022/06/22 02:40:09;;;;;;;4.43;3.00;;;;;;;;;;5071861;28;20235;-54
2022/06/22 02:45:22;;;;;;;4.20;2.73;;;;;;;;;;5071258;28;20226;-54
2022/06/22 02:47:49;;;;;;;3.47;2.67;;;;;;;;;;5071378;28;20195;-54
2022/06/22 02:50:18;;;;;;;3.73;2.97;;;;;;;;;;5074169;28;20196;-53
2022/06/22 02:52:46;;;;;;;3.37;2.70;;;;;;;;;;5075913;28;20261;-54
2022/06/22 02:55:13;;;;;;;2.70;2.50;;;;;;;;;;5075347;28;20195;-54
2022/06/22 02:57:44;;;;;;;3.53;2.70;;;;;;;;;;5075343;28;20304;-54
2022/06/22 03:00:11;;;;;;;6.03;3.00;;;;;;;;;;5075052;28;20219;-54
2022/06/22 03:02:41;;;;;;;4.17;3.03;;;;;;;;;;5075244;28;20654;-53
2022/06/22 03:05:07;;;;;;;4.83;2.97;;;;;;;;;;5075413;28;20207;-53
2022/06/22 03:07:35;;;;;;;4.53;2.90;;;;;;;;;;5075476;28;20231;-54
2022/06/22 03:10:02;;;;;;;5.73;2.97;;;;;;;;;;5074791;28;20650;-54
2022/06/22 03:12:28;;;;;;;4.53;2.83;;;;;;;;;;5075030;28;20203;-54
2022/06/22 03:14:55;;;;;;;4.27;3.43;;;;;;;;;;5074619;28;20286;-54
2022/06/22 03:17:24;;;;;;;4.10;3.10;;;;;;;;;;5074512;28;20192;-54
2022/06/22 03:19:54;;;;;;;2.90;2.60;;;;;;;;;;5074520;28;20243;-54
2022/06/22 03:22:22;;;;;;;2.80;2.50;;;;;;;;;;5074546;28;20219;-54
2022/06/22 03:24:50;;;;;;;3.60;2.93;;;;;;;;;;5074395;28;20199;-54
2022/06/22 03:27:19;;;;;;;3.10;2.80;;;;;;;;;;5073922;28;20225;-54
2022/06/22 03:29:48;;;;;;;3.17;2.80;;;;;;;;;;5072258;28;20721;-54
2022/06/22 03:32:17;;;;;;;3.50;3.20;;;;;;;;;;5074568;28;20230;-54
2022/06/22 03:34:45;;;;;;;4.50;3.10;;;;;;;;;;5074411;28;20681;-53
2022/06/22 03:37:13;;;;;;;4.47;3.20;;;;;;;;;;5074346;28;20285;-54
2022/06/22 03:39:42;;;;;;;3.97;3.10;;;;;;;;;;5074533;28;20247;-54
2022/06/22 03:42:18;;;;;;;3.67;3.03;;;;;;;;;;5074344;28;20666;-54
2022/06/22 03:44:47;;;;;;;3.73;3.13;;;;;;;;;;5074557;28;20205;-54
2022/06/22 03:47:15;;;;;;;5.00;2.90;;;;;;;;;;5074249;28;20207;-54
2022/06/22 03:49:43;;;;;;;4.70;3.33;;;;;;;;;;5074030;28;20702;-54
2022/06/22 03:52:13;;;;;;;4.53;3.20;;;;;;;;;;5072280;28;20207;-54
2022/06/22 03:54:41;;;;;;;4.40;3.40;;;;;;;;;;5074127;28;20192;-53
2022/06/22 03:57:08;;;;;;;3.20;2.87;;;;;;;;;;5073960;28;20221;-54
2022/06/22 03:59:36;;;;;;;4.97;3.30;;;;;;;;;;5073730;28;20234;-55
2022/06/22 04:02:03;;;;;;;3.30;3.00;;;;;;;;;;5073094;28;20209;-54
2022/06/22 04:04:29;;;;;;;3.77;3.47;;;;;;;;;;5073531;28;20195;-54
2022/06/22 04:06:55;;;;;;;3.60;3.30;;;;;;;;;;5073703;28;20535;-54
2022/06/22 04:09:22;;;;;;;3.23;2.93;;;;;;;;;;5072567;28;20192;-53
2022/06/22 04:11:52;;;;;;;3.43;2.97;;;;;;;;;;5073747;28;20665;-53
2022/06/22 04:14:20;;;;;;;5.10;3.77;;;;;;;;;;5073544;28;20611;-53
2022/06/22 04:16:49;;;;;;;5.60;4.30;;;;;;;;;;5073661;28;20235;-54
2022/06/22 04:19:18;;;;;;;8.50;6.40;;;;;;;;;;5074010;28;20215;-53
2022/06/22 04:21:46;;;;;;;9.67;5.80;;;;;;;;;;5073536;28;20199;-53
2022/06/22 04:24:15;;;;;;;10.27;5.57;;;;;;;;;;5073355;28;20762;-53
2022/06/22 04:26:43;;;;;;;8.27;5.30;;;;;;;;;;5073292;28;20625;-53
2022/06/22 04:29:14;;;;;;;10.87;5.70;;;;;;;;;;5073307;28;20674;-53
2022/06/22 04:31:44;;;;;;;7.97;4.83;;;;;;;;;;5073327;28;20247;-53
2022/06/22 04:34:14;;;;;;;7.90;4.70;;;;;;;;;;5073057;28;20210;-53
2022/06/22 04:36:41;;;;;;;6.03;4.33;;;;;;;;;;5073746;28;20239;-53
2022/06/22 04:39:13;;;;;;;6.43;4.40;;;;;;;;;;5073719;28;20250;-53
2022/06/22 04:41:40;;;;;;;6.00;4.43;;;;;;;;;;5073860;28;20282;-53
2022/06/22 04:44:09;;;;;;;6.57;3.63;;;;;;;;;;5073039;28;20191;-53
2022/06/22 04:46:39;;;;;;;4.40;3.47;;;;;;;;;;5072793;28;20677;-53
2022/06/22 04:49:06;;;;;;;4.97;3.50;;;;;;;;;;5073520;28;20199;-53
2022/06/22 04:51:35;;;;;;;4.90;3.70;;;;;;;;;;5073419;28;20195;-56
2022/06/22 04:54:05;;;;;;;5.37;3.30;;;;;;;;;;5072897;28;20196;-53
2022/06/22 04:56:32;;;;;;;5.57;3.27;;;;;;;;;;5072715;28;20617;-54
2022/06/22 04:58:59;;;;;;;3.83;3.37;;;;;;;;;;5072739;28;20788;-53
2022/06/22 05:01:26;;;;;;;5.80;3.33;;;;;;;;;;5073154;28;20662;-53
2022/06/22 05:03:55;;;;;;;4.60;3.47;;;;;;;;;;5072900;28;20701;-54
2022/06/22 05:06:23;;;;;;;5.53;3.50;;;;;;;;;;5072815;28;20230;-53
2022/06/22 05:08:52;;;;;;;5.50;3.30;;;;;;;;;;5072559;28;20261;-53
2022/06/22 05:11:21;;;;;;;5.37;3.43;;;;;;;;;;5072026;28;20607;-53
2022/06/22 05:13:48;;;;;;;5.37;3.47;;;;;;;;;;5072557;28;20194;-54
2022/06/22 05:16:15;;;;;;;7.57;2.93;;;;;;;;;;5071110;28;20238;-53
2022/06/22 05:18:43;;;;;;;7.00;3.30;;;;;;;;;;5071806;28;20257;-53
2022/06/22 05:21:14;;;;;;;6.23;3.40;;;;;;;;;;5071718;28;20202;-53
2022/06/22 05:23:40;;;;;;;5.47;3.37;;;;;;;;;;5072318;28;20270;-53
2022/06/22 05:26:08;;;;;;;4.40;3.13;;;;;;;;;;5072319;28;20315;-53
2022/06/22 05:28:36;;;;;;;4.17;2.70;;;;;;;;;;5072174;28;20199;-54
2022/06/22 05:31:04;;;;;;;6.13;3.07;;;;;;;;;;5072907;28;20203;-54
2022/06/22 05:33:31;;;;;;;3.87;2.97;;;;;;;;;;5072181;28;20662;-53
2022/06/22 05:36:01;;;;;;;4.93;3.37;;;;;;;;;;5071731;28;20210;-53
2022/06/22 05:38:29;;;;;;;4.57;2.73;;;;;;;;;;5071683;28;20287;-54
2022/06/22 05:40:56;;;;;;;5.47;2.93;;;;;;;;;;5071927;28;20230;-53
2022/06/22 05:43:23;;;;;;;6.27;3.03;;;;;;;;;;5071525;28;20202;-53
2022/06/22 05:45:51;;;;;;;4.60;3.10;;;;;;;;;;5071531;28;20943;-53
2022/06/22 05:48:19;;;;;;;3.60;2.90;;;;;;;;;;5072401;28;20204;-53
2022/06/22 05:50:49;;;;;;;3.23;2.87;;;;;;;;;;5072170;28;20306;-53
2022/06/22 05:53:17;;;;;;;4.87;2.57;;;;;;;;;;5072203;28;20668;-53
2022/06/22 05:55:48;;;;;;;4.57;2.70;;;;;;;;;;5071715;28;20196;-53
2022/06/22 05:58:17;;;;;;;3.30;2.20;;;;;;;;;;5071732;28;20203;-53
2022/06/22 06:00:47;;;;;;;2.70;2.17;;;;;;;;;;5070423;28;20566;-53
2022/06/22 06:03:20;;;;;;;2.77;2.20;;;;;;;;;;5071773;28;20198;-53
2022/06/22 06:05:48;;;;;;;6.33;3.33;;;;;;;;;;5072095;28;20243;-53
2022/06/22 06:08:18;;;;;;;4.93;3.30;;;;;;;;;;5071934;28;20204;-53
2022/06/22 06:10:44;;;;;;;8.23;4.03;;;;;;;;;;5071465;28;20196;-53
2022/06/22 06:13:18;;;;;;;5.27;3.03;;;;;;;;;;5071494;28;20200;-53
2022/06/22 06:15:45;;;;;;;4.17;3.33;;;;;;;;;;5071181;28;20654;-53
2022/06/22 06:18:25;;;;;;;4.70;3.57;;;;;;;;;;5071416;28;20255;-53
2022/06/22 06:20:56;;;;;;;4.10;3.70;;;;;;;;;;5071753;28;20555;-53
2022/06/22 06:23:26;;;;;;;5.87;3.60;;;;;;;;;;5071369;28;20678;-53
2022/06/22 06:28:42;;;;;;;5.47;3.23;;;;;;;;;;5071392;28;20686;-53
2022/06/22 06:31:14;;;;;;;4.30;3.10;;;;;;;;;;5070975;28;20302;-53
2022/06/22 06:33:40;;;;;;;6.03;2.87;;;;;;;;;;5071122;28;20210;-53
2022/06/22 06:36:09;;;;;;;5.10;2.70;;;;;;;;;;5071375;28;20198;-53
2022/06/22 06:38:36;;;;;;;3.80;3.10;;;;;;;;;;5071266;28;20200;-53
2022/06/22 06:41:03;;;;;;;3.97;2.80;;;;;;;;;;5071215;28;20331;-53
2022/06/22 06:43:33;;;;;;;4.00;2.60;;;;;;;;;;5071606;28;20206;-53
2022/06/22 06:46:01;;;;;;;6.30;2.70;;;;;;;;;;5071741;28;20253;-53
2022/06/22 06:48:27;;;;;;;3.00;2.43;;;;;;;;;;5071314;28;20297;-54
2022/06/22 06:50:54;;;;;;;8.63;2.60;;;;;;;;;;5071257;28;20229;-53
2022/06/22 06:53:24;;;;;;;3.37;2.17;;;;;;;;;;5071146;28;20191;-53
2022/06/22 06:55:53;;;;;;;3.00;2.23;;;;;;;;;;5071120;28;20290;-53
2022/06/22 06:58:23;;;;;;;3.10;2.00;;;;;;;;;;5071077;28;20550;-53
2022/06/22 07:00:49;;;;;;;2.10;1.50;;;;;;;;;;5071625;28;20705;-53
2022/06/22 07:03:19;;;;;;;2.47;1.70;;;;;;;;;;5071555;28;20202;-53
2022/06/22 07:05:45;;;;;;;4.27;1.70;;;;;;;;;;5071632;28;20545;-53
2022/06/22 07:08:13;;;;;;;2.97;1.47;;;;;;;;;;5071215;28;20662;-54
2022/06/22 07:10:41;;;;;;;4.40;1.33;;;;;;;;;;5069819;28;20550;-54
2022/06/22 07:13:11;;;;;;;3.00;1.50;;;;;;;;;;5070709;28;20209;-54
2022/06/22 07:15:40;;;;;;;2.43;1.50;;;;;;;;;;5070548;28;20261;-54
2022/06/22 07:18:12;;;;;;;2.87;1.50;;;;;;;;;;5070938;28;20658;-54
2022/06/22 07:20:42;;;;;;;3.87;1.50;;;;;;;;;;5071001;28;20693;-54
2022/06/22 07:23:13;;;;;;;2.23;1.37;;;;;;;;;;5071054;28;20200;-54
2022/06/22 07:25:41;;;;;;;2.17;1.33;;;;;;;;;;5071402;28;20215;-54
2022/06/22 07:28:13;;;;;;;2.10;1.30;;;;;;;;;;5070865;28;20718;-54
2022/06/22 07:30:41;;;;;;;7.30;1.70;;;;;;;;;;5071067;28;20200;-54
2022/06/22 07:33:10;;;;;;;3.17;1.90;;;;;;;;;;5070857;28;20676;-53
2022/06/22 07:35:37;;;;;;;7.20;2.03;;;;;;;;;;5070964;28;20204;-53
2022/06/22 07:38:07;;;;;;;2.27;1.90;;;;;;;;;;5074345;28;20216;-54
2022/06/22 07:40:34;;;;;;;2.87;1.83;;;;;;;;;;5074284;28;20315;-54
2022/06/22 07:43:00;;;;;;;5.17;1.70;;;;;;;;;;5074457;28;20196;-54
2022/06/22 07:45:27;;;;;;;5.30;2.07;;;;;;;;;;5074118;28;20686;-54
2022/06/22 07:47:57;;;;;;;4.87;2.40;;;;;;;;;;5074262;28;20253;-54
2022/06/22 07:50:25;;;;;;;6.00;2.30;;;;;;;;;;5074217;28;20204;-54
2022/06/22 07:52:52;;;;;;;2.17;1.80;;;;;;;;;;5074292;28;20203;-54
2022/06/22 07:55:31;;;;;;;4.33;2.17;;;;;;;;;;5074066;28;20643;-54
2022/06/22 07:58:14;;;;;;;2.73;1.73;;;;;;;;;;5074201;28;20405;-53
2022/06/22 08:00:41;;;;;;;7.20;2.00;;;;;;;;;;5073859;28;20219;-54
2022/06/22 08:03:16;;;;;;;4.30;2.00;;;;;;;;;;5073958;28;20643;-54
2022/06/22 08:05:45;;;;;;;4.07;2.17;;;;;;;;;;5074090;28;20614;-53
2022/06/22 08:08:17;;;;;;;3.80;2.30;;;;;;;;;;5074205;28;20197;-53
2022/06/22 08:10:52;;;;;;;5.10;2.37;;;;;;;;;;5074060;28;20257;-52
2022/06/22 08:13:21;;;;;;;4.60;1.80;;;;;;;;;;5073910;28;20209;-55
2022/06/22 08:15:51;;;;;;;3.87;2.00;;;;;;;;;;5073725;28;20661;-53
2022/06/22 08:18:20;;;;;;;4.20;2.00;;;;;;;;;;5073429;28;20679;-53
2022/06/22 08:20:47;;;;;;;4.43;1.87;;;;;;;;;;5073544;28;20601;-53
2022/06/22 08:23:15;;;;;;;5.50;2.23;;;;;;;;;;5073702;28;20278;-52
2022/06/22 08:25:44;;;;;;;3.67;2.20;;;;;;;;;;5073380;28;20215;-52
2022/06/22 08:28:12;;;;;;;4.23;2.00;;;;;;;;;;5072568;28;20657;-52
2022/06/22 08:30:39;;;;;;;4.77;2.13;;;;;;;;;;5071407;28;20264;-50
2022/06/22 08:33:07;;;;;;;3.50;2.10;;;;;;;;;;5073409;28;20278;-53
2022/06/22 08:35:35;;;;;;;3.30;1.83;;;;;;;;;;5073077;28;20401;-53
2022/06/22 08:38:03;;;;;;;2.70;1.80;;;;;;;;;;5073440;28;20235;-52
2022/06/22 08:40:34;;;;;;;3.97;1.80;;;;;;;;;;5073137;28;20257;-51
2022/06/22 08:43:04;;;;;;;4.50;1.40;;;;;;;;;;5073236;28;20199;-51
2022/06/22 08:45:59;;;;;;;4.37;1.80;;;;;;;;;;5072975;28;20203;-51
2022/06/22 08:48:46;;;;;;;2.77;1.47;;;;;;;;;;5072479;28;20306;-52
2022/06/22 08:51:16;;;;;;;3.37;1.70;;;;;;;;;;5072804;28;20207;-51
2022/06/22 08:53:50;;;;;;;1.80;1.40;;;;;;;;;;5061226;28;20229;-51
2022/06/22 08:56:24;;;;;;;2.40;1.63;;;;;;;;;;5053471;28;20191;-50
2022/06/22 08:58:58;;;;;;;2.07;1.40;;;;;;;;;;5053200;28;20208;-52
2022/06/22 09:01:29;;;;;;;3.43;1.43;;;;;;;;;;5052192;28;20205;-51
2022/06/22 09:04:10;;;;;;;5.43;1.87;;;;;;;;;;5052569;28;20290;-50
2022/06/22 09:06:45;;;;;;;4.93;1.87;;;;;;;;;;5041697;28;20257;-51
2022/06/22 09:09:28;;;;;;;4.07;1.57;;;;;;;;;;5052626;28;20549;-52
2022/06/22 09:12:04;;;;;;;3.23;2.00;;;;;;;;;;5052244;28;20213;-53
2022/06/22 09:14:51;;;;;;;2.97;1.77;;;;;;;;;;5052375;28;20239;-53
2022/06/22 09:17:28;;;;;;;3.43;1.70;;;;;;;;;;5052110;28;20192;-52
2022/06/22 09:20:18;;;;;;;4.83;2.00;;;;;;;;;;5052629;28;20226;-53
2022/06/22 09:22:54;;;;;;;2.47;1.70;;;;;;;;;;5052911;28;20201;-53
2022/06/22 09:25:25;;;;;;;2.57;1.53;;;;;;;;;;5052163;28;20571;-52
2022/06/22 09:27:55;;;;;;;4.40;1.57;;;;;;;;;;5052240;28;20695;-53
2022/06/22 09:30:28;;;;;;;2.67;1.60;;;;;;;;;;5052118;28;20206;-53
2022/06/22 09:33:09;;;;;;;3.47;1.70;;;;;;;;;;5052693;28;20622;-53
2022/06/22 09:35:44;;;;;;;2.60;1.43;;;;;;;;;;5052338;28;20261;-53
2022/06/22 09:38:22;;;;;;;2.17;1.40;;;;;;;;;;5053351;28;20205;-53
2022/06/22 09:40:51;;;;;;;3.87;1.73;;;;;;;;;;5052064;28;20595;-53
2022/06/22 09:43:40;;;;;;;2.83;1.70;;;;;;;;;;5051800;28;20222;-53
2022/06/22 09:46:16;;;;;;;4.03;1.40;;;;;;;;;;5051675;28;20198;-53
2022/06/22 09:48:51;;;;;;;2.87;1.70;;;;;;;;;;5051658;28;20210;-53
2022/06/22 09:51:23;;;;;;;2.80;1.20;;;;;;;;;;5051574;28;20206;-51
2022/06/22 09:53:56;;;;;;;3.77;1.40;;;;;;;;;;5051903;28;20721;-52
2022/06/22 09:56:38;;;;;;;2.43;1.30;;;;;;;;;;5051627;28;20196;-52
2022/06/22 09:59:11;;;;;;;2.43;1.43;;;;;;;;;;5050854;28;20200;-52
2022/06/22 10:01:44;;;;;;;2.57;1.47;;;;;;;;;;5051777;28;20207;-65
2022/06/22 10:04:38;;;;;;;3.97;1.40;;;;;;;;;;5051714;28;20196;-53
2022/06/22 10:07:13;;;;;;;3.00;1.50;;;;;;;;;;5051264;28;20206;-53
2022/06/22 10:09:46;;;;;;;3.30;1.40;;;;;;;;;;5051273;28;20205;-52
2022/06/22 10:12:19;;;;;;;1.47;1.07;;;;;;;;;;5051349;28;20279;-53
2022/06/22 10:14:56;;;;;;;1.23;1.10;;;;;;;;;;5051339;28;20224;-51
2022/06/22 10:17:31;;;;;;;2.40;1.23;;;;;;;;;;5051407;28;20335;-52
2022/06/22 10:20:10;;;;;;;2.33;1.47;;;;;;;;;;5051420;28;20697;-52
2022/06/22 10:22:43;;;;;;;3.43;1.40;;;;;;;;;;5051311;28;20739;-53
2022/06/22 10:25:18;;;;;;;1.57;1.20;;;;;;;;;;5051236;28;20295;-52
2022/06/22 10:28:10;;;;;;;2.10;1.20;;;;;;;;;;5051082;28;20201;-52
2022/06/22 10:30:41;;;;;;;1.90;1.10;;;;;;;;;;5013231;28;20205;-61
2022/06/22 10:33:15;;;;;;;2.15;1.40;;;;;;;;;;5049866;28;20417;-66
2022/06/22 10:35:58;;;;;;;2.43;1.27;;;;;;;;;;5050506;28;20223;-65
2022/06/22 10:38:41;;;;;;;1.73;1.23;;;;;;;;;;5051161;28;20251;-52
2022/06/22 10:47:13;;;;;;;1.83;1.30;;;;;;;;;;5050978;28;20233;-53
2022/06/22 10:49:49;;;;;;;2.97;1.43;;;;;;;;;;5051244;28;20231;-54
2022/06/22 10:52:22;;;;;;;1.97;1.40;;;;;;;;;;5051505;28;20199;-54
2022/06/22 10:54:57;;;;;;;2.00;1.10;;;;;;;;;;5048451;28;20221;-54
2022/06/22 10:57:34;;;;;;;2.37;0.93;;;;;;;;;;5051053;28;20287;-54
2022/06/22 11:00:09;;;;;;;1.47;1.17;;;;;;;;;;5050749;28;20229;-54
2022/06/22 11:03:01;;;;;;;2.33;1.10;;;;;;;;;;5050389;28;20230;-53
2022/06/22 11:05:34;;;;;;;1.67;1.10;;;;;;;;;;5050472;28;20397;-54
2022/06/22 11:08:13;;;;;;;1.50;1.10;;;;;;;;;;5050570;28;20203;-53
2022/06/22 11:10:52;;;;;;;2.50;1.00;;;;;;;;;;5052319;28;20220;-54
2022/06/22 11:13:28;;;;;;;1.10;1.00;;;;;;;;;;5054420;28;20203;-54
2022/06/22 11:15:59;;;;;;;1.93;0.80;;;;;;;;;;5054579;28;20254;-54
2022/06/22 11:18:48;;;;;;;1.10;1.00;;;;;;;;;;5054928;28;20230;-55
2022/06/22 11:21:20;;;;;;;1.33;0.97;;;;;;;;;;5054651;28;20230;-54
2022/06/22 11:24:05;;;;;;;3.47;1.10;;;;;;;;;;5054607;28;20214;-55
2022/06/22 11:32:22;;;;;;;2.30;1.20;;;;;;;;;;5054631;28;20562;-54
2022/06/22 11:35:03;;;;;;;2.67;1.30;;;;;;;;;;5054513;28;20290;-54
2022/06/22 11:37:38;;;;;;;1.77;1.27;;;;;;;;;;5052498;28;20356;-55
2022/06/22 11:40:17;;;;;;;2.67;1.40;;;;;;;;;;5054513;28;20225;-56
2022/06/22 11:42:53;;;;;;;4.43;1.40;;;;;;;;;;5053983;28;20202;-55
2022/06/22 11:48:21;;;;;;;2.17;1.50;;;;;;;;;;5054250;28;20197;-53
2022/06/22 11:50:59;;;;;;;3.13;1.33;;;;;;;;;;5053886;28;20203;-54
2022/06/22 11:53:31;;;;;;;5.13;1.30;;;;;;;;;;5054187;28;20206;-55
2022/06/22 11:56:01;;;;;;;3.87;1.43;;;;;;;;;;5054106;28;20293;-54
2022/06/22 11:58:48;;;;;;;1.70;1.20;;;;;;;;;;5053968;28;20253;-55
2022/06/22 12:01:29;;;;;;;2.30;1.37;;;;;;;;;;5054021;28;20518;-55
2022/06/22 12:04:22;;;;;;;2.90;1.20;;;;;;;;;;5052543;28;20213;-54
2022/06/22 12:07:03;;;;;;;2.17;1.20;;;;;;;;;;5029578;28;20295;-54
2022/06/22 12:09:41;;;;;;;1.50;1.20;;;;;;;;;;5053907;28;20559;-55
2022/06/22 12:12:28;;;;;;;2.30;1.20;;;;;;;;;;5053837;28;20666;-55
2022/06/22 12:15:05;;;;;;;2.20;1.33;;;;;;;;;;5053406;28;20304;-53
2022/06/22 12:17:38;;;;;;;1.77;1.03;;;;;;;;;;5053595;28;20218;-56
2022/06/22 12:20:09;;;;;;;1.70;1.40;;;;;;;;;;5053855;28;20229;-56
2022/06/22 12:22:42;;;;;;;4.67;1.47;;;;;;;;;;5052665;28;20218;-60
2022/06/22 12:25:15;;;;;;;2.03;1.20;;;;;;;;;;5047984;28;20191;-56
2022/06/22 12:27:44;;;;;;;3.30;1.13;;;;;;;;;;5050971;28;20216;-56
2022/06/22 12:30:17;;;;;;;1.50;0.90;;;;;;;;;;5053468;28;20199;-56
2022/06/22 12:32:48;;;;;;;1.33;1.07;;;;;;;;;;5053322;28;20199;-55
2022/06/22 12:35:16;;;;;;;1.30;1.00;;;;;;;;;;5053390;28;20204;-55
2022/06/22 12:37:44;;;;;;;1.30;1.20;;;;;;;;;;5053468;28;20213;-55
2022/06/22 12:40:16;;;;;;;3.03;1.20;;;;;;;;;;5053638;28;20227;-55
2022/06/22 12:42:55;;;;;;;1.20;0.90;;;;;;;;;;5053187;28;20662;-55
2022/06/22 12:45:28;;;;;;;2.23;1.10;;;;;;;;;;5051195;28;20721;-55
2022/06/22 12:48:04;;;;;;;2.80;1.13;;;;;;;;;;5052800;28;20550;-55
2022/06/22 12:50:53;;;;;;;2.90;1.23;;;;;;;;;;5052623;28;20620;-55
2022/06/22 12:53:21;;;;;;;1.03;0.93;;;;;;;;;;5052611;28;20571;-55
2022/06/22 12:55:50;;;;;;;1.73;1.20;;;;;;;;;;5052677;28;20201;-56
2022/06/22 12:58:22;;;;;;;1.50;1.10;;;;;;;;;;5052493;28;20197;-55
2022/06/22 13:00:48;;;;;;;5.27;1.10;;;;;;;;;;5052408;28;20628;-55
2022/06/22 13:03:18;;;;;;;1.97;0.97;;;;;;;;;;5052340;28;20252;-55
2022/06/22 13:05:45;;;;;;;1.13;0.80;;;;;;;;;;5052613;28;20206;-55
2022/06/22 13:08:15;;;;;;;0.87;0.80;;;;;;;;;;5052005;28;20198;-55
2022/06/22 13:10:43;;;;;;;2.07;0.70;;;;;;;;;;5052449;28;20239;-55
2022/06/22 13:13:14;;;;;;;1.60;0.80;;;;;;;;;;5052630;28;20249;-55
2022/06/22 13:15:44;;;;;;;1.53;0.83;;;;;;;;;;5052031;28;20236;-55
2022/06/22 13:18:14;;;;;;;1.10;0.73;;;;;;;;;;5052637;28;20216;-54
2022/06/22 13:20:44;;;;;;;0.93;0.73;;;;;;;;;;5052208;28;20238;-55
2022/06/22 13:23:15;;;;;;;1.37;0.80;;;;;;;;;;5052441;28;20234;-54
2022/06/22 13:25:44;;;;;;;1.20;1.03;;;;;;;;;;5052150;28;20220;-55
2022/06/22 13:28:16;;;;;;;2.07;1.00;;;;;;;;;;5052332;28;20201;-54
2022/06/22 13:30:45;;;;;;;1.10;0.83;;;;;;;;;;5052290;28;20542;-54
2022/06/22 13:33:14;;;;;;;2.33;1.07;;;;;;;;;;5051895;28;20207;-54
2022/06/22 13:35:43;;;;;;;1.17;0.70;;;;;;;;;;5051885;28;20207;-54
2022/06/22 13:38:18;;;;;;;1.90;1.10;;;;;;;;;;5052139;28;20660;-54
2022/06/22 13:40:52;;;;;;;2.20;1.00;;;;;;;;;;5052098;28;20250;-54
2022/06/22 13:43:23;;;;;;;2.47;0.87;;;;;;;;;;5052570;28;20217;-54
2022/06/22 13:46:00;;;;;;;2.17;1.10;;;;;;;;;;5052084;28;20227;-55
2022/06/22 13:48:28;;;;;;;1.57;1.00;;;;;;;;;;5052045;28;20239;-55
2022/06/22 13:53:37;;;;;;;1.57;0.90;;;;;;;;;;5052026;28;20205;-54
2022/06/22 13:56:07;;;;;;;1.60;1.10;;;;;;;;;;5052173;28;20214;-55
2022/06/22 13:58:36;;;;;;;1.10;0.73;;;;;;;;;;5052001;28;20211;-54
2022/06/22 14:01:07;;;;;;;0.83;0.73;;;;;;;;;;5051774;28;20233;-54
2022/06/22 14:03:37;;;;;;;2.77;1.03;;;;;;;;;;5052022;28;20207;-54
2022/06/22 14:06:10;;;;;;;1.67;1.00;;;;;;;;;;5051668;28;20275;-54
2022/06/22 14:08:40;;;;;;;0.90;0.90;;;;;;;;;;5052130;28;20203;-54
2022/06/22 14:11:09;;;;;;;1.10;1.00;;;;;;;;;;5051756;28;20201;-54
2022/06/22 14:13:38;;;;;;;2.03;1.10;;;;;;;;;;5051107;28;20253;-54
2022/06/22 14:16:07;;;;;;;1.30;0.80;;;;;;;;;;5051403;28;20238;-54
2022/06/22 14:18:36;;;;;;;1.40;1.00;;;;;;;;;;5051938;28;20199;-54
2022/06/22 14:21:07;;;;;;;3.43;1.13;;;;;;;;;;5051417;28;20703;-54
2022/06/22 14:23:35;;;;;;;1.17;1.00;;;;;;;;;;5051381;28;20200;-54
2022/06/22 14:26:06;;;;;;;2.33;0.90;;;;;;;;;;5049783;28;20220;-54
2022/06/22 14:28:35;;;;;;;2.33;1.23;;;;;;;;;;5051673;28;20203;-53
2022/06/22 14:31:04;;;;;;;1.27;1.00;;;;;;;;;;5051449;28;20199;-53
2022/06/22 14:33:43;;;;;;;1.10;1.00;;;;;;;;;;5051436;28;20205;-53
2022/06/22 14:36:12;;;;;;;1.43;0.87;;;;;;;;;;5051374;28;20620;-53
2022/06/22 14:38:43;;;;;;;1.97;1.10;;;;;;;;;;5051367;28;20650;-53
2022/06/22 14:41:13;;;;;;;2.20;1.20;;;;;;;;;;5051269;28;20234;-54
2022/06/22 14:43:41;;;;;;;1.47;1.23;;;;;;;;;;5051352;28;20195;-54
2022/06/22 14:46:09;;;;;;;3.33;1.20;;;;;;;;;;5053659;28;20210;-54
2022/06/22 14:48:38;;;;;;;1.60;1.40;;;;;;;;;;5055302;28;20198;-54
2022/06/22 14:51:09;;;;;;;1.90;1.40;;;;;;;;;;5055494;28;20206;-54
2022/06/22 14:53:45;;;;;;;1.20;1.10;;;;;;;;;;5055242;28;20273;-54
2022/06/22 14:56:13;;;;;;;2.50;1.30;;;;;;;;;;5055686;28;20220;-54
2022/06/22 14:58:43;;;;;;;1.70;1.20;;;;;;;;;;5055184;28;20198;-54
2022/06/22 15:01:13;;;;;;;1.23;1.00;;;;;;;;;;5055154;28;20318;-54
2022/06/22 15:03:43;;;;;;;2.73;1.30;;;;;;;;;;5055201;28;20725;-54
2022/06/22 15:06:12;;;;;;;2.00;1.20;;;;;;;;;;5055458;28;20739;-54
2022/06/22 15:08:40;;;;;;;1.30;1.20;;;;;;;;;;5055504;28;20199;-54
2022/06/22 15:13:59;;;;;;;1.20;1.00;;;;;;;;;;5055291;28;20574;-54
2022/06/22 15:16:27;;;;;;;1.97;1.30;;;;;;;;;;5055006;28;20234;-53
2022/06/22 15:18:58;;;;;;;2.97;1.40;;;;;;;;;;5055110;28;20719;-53
2022/06/22 15:21:27;;;;;;;2.33;1.33;;;;;;;;;;5055671;28;20225;-52
2022/06/22 15:23:56;;;;;;;2.10;1.30;;;;;;;;;;5055493;28;20212;-53
2022/06/22 15:26:26;;;;;;;2.27;1.10;;;;;;;;;;5054976;28;20601;-53
2022/06/22 15:28:54;;;;;;;1.90;1.23;;;;;;;;;;5055009;28;20204;-53
2022/06/22 15:31:27;;;;;;;2.40;1.50;;;;;;;;;;5055102;28;20198;-53
2022/06/22 15:33:55;;;;;;;2.50;1.50;;;;;;;;;;5054645;28;20301;-53